.
WxDataArchive / Data Records for 2007-10-06
2007-10-05 October 2007 2007-10-07

Data Records for Saturday, 06 October 2007

Time	Temp	Chill	HIndex	Humid	Dewpt	 Wind 	HiWind	WindDir	Rain 	Barom 
-----	----	-----	------	-----	-----	------	------	-------	-----	----- 
00:00	71.1	71.1	71.1	84	66.0	0	1	248	0.00	30.066 
00:05	71.1	71.1	71.1	84	66.0	0	0	---	0.00	30.064 
00:10	70.9	70.9	70.9	84	65.8	0	0	---	0.00	30.061 
00:15	70.9	70.9	70.9	85	66.2	0	1	248	0.00	30.059 
00:20	71.1	71.1	71.1	85	66.4	0	0	---	0.00	30.059 
00:25	71.1	71.1	71.1	84	66.0	0	0	---	0.00	30.059 
00:30	71.1	71.1	71.1	85	66.4	0	1	248	0.00	30.059 
00:35	71.1	71.1	71.1	85	66.4	0	1	248	0.00	30.059 
00:40	71.1	71.1	71.1	85	66.4	0	0	---	0.00	30.059 
00:45	71.1	71.1	71.1	85	66.4	0	1	248	0.00	30.059 
00:50	70.9	70.9	70.9	85	66.2	0	0	---	0.00	30.059 
00:55	70.9	70.9	70.9	85	66.2	0	0	---	0.00	30.059 
01:00	70.8	70.8	70.8	86	66.4	0	1	248	0.00	30.059 
01:05	70.6	70.6	70.6	86	66.2	0	0	---	0.00	30.058 
01:10	70.6	70.6	70.6	86	66.2	0	0	---	0.00	30.057 
01:15	70.4	70.4	70.4	87	66.3	0	0	---	0.00	30.057 
01:20	70.3	70.3	70.3	87	66.2	0	0	---	0.00	30.057 
01:25	70.3	70.3	70.3	87	66.2	0	0	---	0.00	30.057 
01:30	70.1	70.1	70.1	88	66.4	0	0	---	0.00	30.057 
01:35	70.1	70.1	70.1	88	66.4	0	1	248	0.00	30.056 
01:40	70.1	70.1	70.1	88	66.4	0	1	248	0.00	30.056 
01:45	70.1	70.1	70.1	88	66.4	0	1	248	0.00	30.056 
01:50	70.1	70.1	70.1	88	66.4	0	1	248	0.00	30.055 
01:55	69.9	69.9	69.9	88	66.2	0	0	---	0.00	30.054 
02:00	69.8	69.8	69.8	89	66.4	0	0	---	0.00	30.054 
02:05	69.8	69.8	69.8	89	66.4	0	0	---	0.00	30.051 
02:10	69.6	69.6	69.6	89	66.2	0	0	---	0.00	30.050 
02:15	69.6	69.6	69.6	89	66.2	0	1	248	0.00	30.049 
02:20	69.6	69.6	69.6	89	66.2	0	1	248	0.00	30.045 
02:25	69.8	69.8	69.8	90	66.7	0	1	248	0.00	30.045 
02:30	69.9	69.9	69.9	89	66.5	0	1	248	0.00	30.044 
02:35	69.9	69.9	69.9	89	66.5	0	1	248	0.00	30.045 
02:40	70.1	70.1	70.1	89	66.7	0	1	248	0.00	30.045 
02:45	70.3	70.3	70.3	88	66.6	0	2	248	0.00	30.046 
02:50	70.4	70.4	70.4	88	66.7	0	1	248	0.00	30.044 
02:55	70.4	70.4	70.4	88	66.7	0	2	248	0.00	30.043 
03:00	70.6	70.6	70.6	88	66.9	0	1	248	0.00	30.041 
03:05	70.6	70.6	70.6	88	66.9	0	2	248	0.00	30.041 
03:10	70.6	70.6	70.6	88	66.9	0	1	248	0.00	30.042 
03:15	70.6	70.6	70.6	87	66.5	0	1	248	0.00	30.043 
03:20	70.6	70.6	70.6	87	66.5	0	1	248	0.00	30.043 
03:25	70.4	70.4	70.4	88	66.7	0	0	---	0.00	30.047 
03:30	70.3	70.3	70.3	88	66.6	0	0	---	0.00	30.047 
03:35	69.9	69.9	69.9	88	66.2	0	0	---	0.00	30.047 
03:40	69.8	69.8	69.8	88	66.1	0	1	248	0.00	30.047 
03:45	69.6	69.6	69.6	89	66.2	0	0	---	0.00	30.047 
03:50	69.4	69.4	69.4	90	66.3	0	0	---	0.00	30.049 
03:55	69.3	69.3	69.3	90	66.2	0	0	---	0.00	30.049 
04:00	69.1	69.1	69.1	90	66.0	0	1	248	0.00	30.050 
04:05	68.9	68.9	68.9	90	65.8	0	0	---	0.00	30.052 
04:10	68.8	68.8	68.8	91	66.1	0	0	---	0.00	30.052 
04:15	68.6	68.6	68.6	91	65.9	0	1	248	0.00	30.052 
04:20	68.6	68.6	68.6	91	65.9	0	0	---	0.00	30.053 
04:25	68.4	68.4	68.4	91	65.7	0	0	---	0.00	30.058 
04:30	68.4	68.4	68.4	92	66.0	0	1	248	0.00	30.059 
04:35	68.4	68.4	68.4	92	66.0	0	1	248	0.00	30.059 
04:40	68.6	68.6	68.6	92	66.2	0	0	---	0.00	30.057 
04:45	68.4	68.4	68.4	92	66.0	0	1	248	0.00	30.058 
04:50	68.4	68.4	68.4	92	66.0	0	0	---	0.00	30.058 
04:55	68.3	68.3	68.3	92	65.9	0	0	---	0.00	30.058 
05:00	68.3	68.3	68.3	92	65.9	0	1	248	0.00	30.058 
05:05	68.1	68.1	68.1	92	65.7	0	0	---	0.00	30.061 
05:10	68.1	68.1	68.1	93	66.0	0	0	---	0.00	30.063 
05:15	68.1	68.1	68.1	93	66.0	0	0	---	0.00	30.063 
05:20	67.9	67.9	67.9	93	65.8	0	0	---	0.00	30.064 
05:25	67.9	67.9	67.9	93	65.8	0	0	---	0.00	30.065 
05:30	67.8	67.8	67.8	93	65.7	0	0	---	0.00	30.064 
05:35	67.6	67.6	67.6	93	65.5	0	0	---	0.00	30.064 
05:40	67.4	67.4	67.4	94	65.6	0	0	---	0.00	30.064 
05:45	67.4	67.4	67.4	94	65.6	0	0	---	0.00	30.064 
05:50	67.4	67.4	67.4	94	65.6	0	0	---	0.00	30.064 
05:55	67.4	67.4	67.4	94	65.6	0	0	---	0.00	30.064 
06:00	67.3	67.3	67.3	94	65.5	0	0	---	0.00	30.065 
06:05	67.3	67.3	67.3	95	65.8	0	0	---	0.00	30.070 
06:10	67.1	67.1	67.1	95	65.6	0	0	---	0.00	30.071 
06:15	66.9	66.9	66.9	95	65.4	0	0	---	0.00	30.071 
06:20	66.8	66.8	66.8	95	65.3	0	0	---	0.00	30.073 
06:25	66.6	66.6	66.6	95	65.1	0	0	---	0.00	30.072 
06:30	66.4	66.4	66.4	95	64.9	0	0	---	0.00	30.074 
06:35	66.4	66.4	66.4	95	64.9	0	0	---	0.00	30.078 
06:40	66.4	66.4	66.4	95	64.9	0	0	---	0.00	30.077 
06:45	66.4	66.4	66.4	95	64.9	0	0	---	0.00	30.079 
06:50	66.4	66.4	66.4	95	64.9	0	0	---	0.00	30.080 
06:55	66.4	66.4	66.4	95	64.9	0	0	---	0.00	30.079 
07:00	66.6	66.6	66.6	96	65.4	0	0	---	0.00	30.082 
07:05	66.8	66.8	66.8	96	65.6	0	0	---	0.00	30.085 
07:10	66.8	66.8	66.8	96	65.6	0	0	---	0.00	30.086 
07:15	66.8	66.8	66.8	96	65.6	0	0	---	0.00	30.086 
07:20	66.9	66.9	66.9	96	65.7	0	0	---	0.00	30.086 
07:25	66.9	66.9	66.9	96	65.7	0	0	---	0.00	30.087 
07:30	67.3	67.3	67.3	96	66.1	0	0	---	0.00	30.087 
07:35	67.4	67.4	67.4	96	66.2	0	0	---	0.00	30.089 
07:40	67.8	67.8	67.8	96	66.6	0	1	248	0.00	30.089 
07:45	68.1	68.1	68.1	96	66.9	0	1	248	0.00	30.090 
07:50	68.4	68.4	68.4	96	67.2	1	2	248	0.00	30.092 
07:55	68.8	68.8	68.8	95	67.3	0	1	270	0.00	30.092 
08:00	68.9	68.9	68.9	95	67.4	0	1	270	0.00	30.091 
08:05	69.3	69.3	69.3	94	67.5	0	1	270	0.00	30.091 
08:10	69.8	69.8	69.8	93	67.7	0	2	270	0.00	30.093 
08:15	70.3	70.3	70.3	92	67.9	0	2	270	0.00	30.092 
08:20	70.8	70.8	70.8	90	67.7	1	3	270	0.00	30.093 
08:25	71.3	71.3	71.3	88	67.6	0	2	270	0.00	30.094 
08:30	71.8	71.8	71.8	88	68.0	0	1	270	0.00	30.093 
08:35	72.3	72.3	72.3	87	68.2	0	1	270	0.00	30.093 
08:40	72.8	72.8	72.8	85	68.0	0	2	270	0.00	30.092 
08:45	73.3	73.3	73.3	84	68.2	0	2	270	0.00	30.093 
08:50	73.9	73.9	73.9	82	68.0	0	1	270	0.00	30.094 
08:55	74.4	74.4	74.4	81	68.2	0	2	270	0.00	30.093 
09:00	75.1	75.1	75.8	79	68.1	1	2	270	0.00	30.093 
09:05	75.6	75.6	76.7	77	67.9	1	3	270	0.00	30.095 
09:10	76.1	76.1	77.4	76	68.0	1	2	248	0.00	30.092 
09:15	76.7	76.7	78.3	75	68.2	1	3	248	0.00	30.092 
09:20	77.2	77.2	79.0	74	68.3	1	2	248	0.00	30.090 
09:25	77.4	77.4	79.3	73	68.0	2	3	248	0.00	30.092 
09:30	77.6	77.6	79.5	73	68.2	1	3	270	0.00	30.091 
09:35	77.9	77.9	80.0	73	68.5	1	3	270	0.00	30.090 
09:40	78.3	78.3	80.5	71	68.1	1	3	270	0.00	30.089 
09:45	78.6	78.6	81.0	72	68.8	1	2	270	0.00	30.090 
09:50	79.0	79.0	81.4	70	68.4	1	3	270	0.00	30.089 
09:55	79.2	79.2	81.6	69	68.1	1	4	270	0.00	30.088 
10:00	79.6	79.6	82.2	69	68.5	0	2	270	0.00	30.084 
10:05	80.1	80.1	82.9	68	68.6	1	2	270	0.00	30.085 
10:10	80.5	80.5	83.2	66	68.1	1	3	270	0.00	30.085 
10:15	80.9	80.9	83.8	66	68.4	1	3	270	0.00	30.083 
10:20	81.2	81.2	84.3	66	68.7	1	2	270	0.00	30.083 
10:25	81.6	81.6	84.9	66	69.1	1	4	270	0.00	30.083 
10:30	81.8	81.8	84.9	64	68.4	1	3	292	0.00	30.081 
10:35	82.2	82.2	85.5	64	68.8	1	3	248	0.00	30.080 
10:40	82.4	82.4	85.6	63	68.5	1	3	248	0.00	30.079 
10:45	82.4	82.4	85.6	63	68.5	1	3	248	0.00	30.076 
10:50	82.8	82.8	86.3	63	68.9	1	2	248	0.00	30.075 
10:55	83.2	83.2	86.7	62	68.8	1	3	248	0.00	30.074 
11:00	83.2	83.2	86.5	61	68.3	1	3	248	0.00	30.076 
11:05	83.0	83.0	86.6	63	69.1	1	3	315	0.00	30.074 
11:10	83.2	83.2	86.5	61	68.3	1	3	292	0.00	30.073 
11:15	83.6	83.6	87.4	62	69.2	1	3	292	0.00	30.073 
11:20	84.1	84.1	87.7	60	68.7	1	2	292	0.00	30.072 
11:25	84.3	84.3	87.8	59	68.4	1	4	292	0.00	30.073 
11:30	84.3	84.3	87.8	59	68.4	0	2	202	0.00	30.067 
11:35	84.1	84.1	87.7	60	68.7	1	3	315	0.00	30.062 
11:40	84.3	84.3	87.8	59	68.4	2	4	270	0.00	30.063 
11:45	84.0	84.0	87.3	59	68.1	0	2	270	0.00	30.062 
11:50	83.4	83.4	86.5	60	68.0	1	3	270	0.00	30.062 
11:55	83.0	83.0	86.4	62	68.6	1	2	270	0.00	30.061 
12:00	83.6	83.6	86.9	60	68.2	1	3	270	0.00	30.059 
12:05	83.2	83.2	86.2	60	67.8	1	2	270	0.00	30.059 
12:10	82.8	82.8	85.8	61	67.9	1	2	270	0.00	30.059 
12:15	82.2	82.2	84.9	61	67.4	1	2	248	0.00	30.059 
12:20	81.8	81.8	84.5	62	67.5	1	2	292	0.00	30.058 
12:25	81.6	81.6	84.7	65	68.7	0	1	292	0.00	30.055 
12:30	82.2	82.2	85.3	63	68.3	0	2	292	0.00	30.049 
12:35	83.4	83.4	86.8	61	68.5	1	4	270	0.00	30.046 
12:40	84.1	84.1	87.7	60	68.7	1	4	270	0.00	30.044 
12:45	84.9	84.9	88.8	59	68.9	0	2	315	0.00	30.041 
12:50	85.5	85.5	89.5	58	69.0	0	2	315	0.00	30.040 
12:55	85.9	85.9	88.9	54	67.3	1	4	248	0.00	30.039 
13:00	86.1	86.1	89.6	55	68.0	1	3	270	0.00	30.037 
13:05	86.1	86.1	89.9	56	68.5	1	6	292	0.00	30.034 
13:10	86.3	86.3	89.9	55	68.2	1	3	270	0.00	30.031 
13:15	86.5	86.5	89.6	53	67.3	1	5	270	0.00	30.027 
13:20	86.7	86.7	89.9	53	67.5	1	3	292	0.00	30.026 
13:25	87.2	87.2	89.7	50	66.3	2	6	270	0.00	30.026 
13:30	87.2	87.2	89.7	50	66.3	1	4	270	0.00	30.022 
13:35	87.2	87.2	90.1	51	66.8	1	3	248	0.00	30.018 
13:40	87.4	87.4	90.1	50	66.4	1	5	248	0.00	30.014 
13:45	87.4	87.4	90.4	51	67.0	1	3	248	0.00	30.012 
13:50	87.4	87.4	90.7	52	67.6	1	3	112	0.00	30.012 
13:55	87.4	87.4	90.1	50	66.4	1	3	112	0.00	30.011 
14:00	87.2	87.2	90.1	51	66.8	1	3	270	0.00	30.012 
14:05	87.2	87.2	89.7	50	66.3	1	3	270	0.00	30.009 
14:10	87.4	87.4	90.1	50	66.4	1	3	270	0.00	30.009 
14:15	87.8	87.8	90.7	50	66.8	1	3	270	0.00	30.009 
14:20	87.8	87.8	90.7	50	66.8	1	4	270	0.00	30.008 
14:25	88.0	88.0	91.0	50	67.0	1	3	248	0.00	30.005 
14:30	87.8	87.8	90.4	49	66.2	1	3	270	0.00	30.003 
14:35	88.0	88.0	91.0	50	67.0	1	2	270	0.00	30.000 
14:40	88.0	88.0	90.7	49	66.4	1	3	270	0.00	29.999 
14:45	87.8	87.8	91.1	51	67.4	0	2	112	0.00	30.001 
14:50	87.6	87.6	90.4	50	66.6	0	3	248	0.00	30.001 
14:55	87.8	87.8	91.4	52	67.9	0	1	248	0.00	29.998 
15:00	88.0	88.0	90.3	48	65.8	1	3	248	0.00	29.999 
15:05	88.0	88.0	90.7	49	66.4	1	3	248	0.00	29.999 
15:10	87.6	87.6	90.7	51	67.2	1	3	270	0.00	29.997 
15:15	87.4	87.4	89.7	49	65.9	1	3	270	0.00	29.996 
15:20	87.4	87.4	90.1	50	66.4	0	2	270	0.00	29.996 
15:25	87.0	87.0	89.4	50	66.1	0	2	270	0.00	29.996 
15:30	86.7	86.7	89.3	51	66.4	1	3	248	0.00	29.998 
15:35	86.7	86.7	89.3	51	66.4	0	3	248	0.00	29.999 
15:40	86.5	86.5	88.9	51	66.2	0	2	270	0.00	29.997 
15:45	86.5	86.5	88.6	50	65.6	0	2	270	0.00	29.996 
15:50	86.5	86.5	88.9	51	66.2	0	2	270	0.00	29.995 
15:55	86.7	86.7	88.9	50	65.8	1	3	270	0.00	29.994 
16:00	86.5	86.5	88.6	50	65.6	0	1	225	0.00	29.994 
16:05	86.3	86.3	88.3	50	65.4	0	1	225	0.00	29.995 
16:10	86.3	86.3	88.6	51	66.0	0	1	225	0.00	29.994 
16:15	86.3	86.3	88.6	51	66.0	0	2	225	0.00	29.994 
16:20	86.5	86.5	88.3	49	65.0	1	3	225	0.00	29.993 
16:25	86.7	86.7	88.6	49	65.2	1	3	270	0.00	29.994 
16:30	87.0	87.0	89.1	49	65.5	0	1	270	0.00	29.992 
16:35	86.7	86.7	88.9	50	65.8	0	2	270	0.00	29.990 
16:40	86.5	86.5	88.6	50	65.6	0	2	270	0.00	29.987 
16:45	86.5	86.5	88.3	49	65.0	1	3	248	0.00	29.985 
16:50	86.3	86.3	88.3	50	65.4	0	2	248	0.00	29.985 
16:55	86.3	86.3	88.3	50	65.4	0	2	248	0.00	29.985 
17:00	86.1	86.1	88.6	52	66.4	0	1	248	0.00	29.988 
17:05	85.7	85.7	88.0	52	66.0	0	1	248	0.00	29.988 
17:10	85.5	85.5	88.3	54	66.9	0	0	---	0.00	29.989 
17:15	85.1	85.1	87.4	53	66.0	0	1	248	0.00	29.992 
17:20	84.9	84.9	87.3	54	66.4	0	2	248	0.00	29.993 
17:25	84.9	84.9	87.3	54	66.4	0	1	248	0.00	29.993 
17:30	84.7	84.7	87.0	54	66.2	0	1	248	0.00	29.991 
17:35	84.5	84.5	87.0	55	66.5	0	1	248	0.00	29.990 
17:40	84.3	84.3	87.0	56	66.9	0	0	---	0.00	29.992 
17:45	84.0	84.0	86.7	57	67.1	0	0	---	0.00	29.988 
17:50	83.6	83.6	86.4	58	67.2	0	0	---	0.00	29.988 
17:55	83.2	83.2	85.8	58	66.9	0	0	---	0.00	29.986 
18:00	82.8	82.8	85.4	59	67.0	0	0	---	0.00	29.986 
18:05	82.4	82.4	85.0	60	67.1	0	0	---	0.00	29.987 
18:10	81.8	81.8	84.5	62	67.5	0	0	---	0.00	29.988 
18:15	81.2	81.2	83.6	62	66.9	0	0	---	0.00	29.987 
18:20	80.7	80.7	83.2	64	67.4	0	0	---	0.00	29.986 
18:25	80.1	80.1	82.5	65	67.2	0	0	---	0.00	29.989 
18:30	79.8	79.8	82.2	66	67.4	0	0	---	0.00	29.989 
18:35	79.2	79.2	81.5	67	67.3	0	0	---	0.00	29.991 
18:40	78.6	78.6	80.7	68	67.1	0	0	---	0.00	29.994 
18:45	78.1	78.1	80.1	69	67.1	0	0	---	0.00	29.995 
18:50	77.7	77.7	79.7	71	67.5	0	0	---	0.00	29.994 
18:55	77.4	77.4	79.3	72	67.6	0	0	---	0.00	29.997 
19:00	77.0	77.0	78.7	73	67.7	0	0	---	0.00	29.994 
19:05	76.7	76.7	78.3	74	67.8	0	0	---	0.00	29.991 
19:10	76.5	76.5	78.1	74	67.6	0	0	---	0.00	29.993 
19:15	76.1	76.1	77.5	75	67.6	0	0	---	0.00	29.996 
19:20	75.8	75.8	77.0	76	67.7	0	0	---	0.00	29.996 
19:25	75.4	75.4	76.4	77	67.7	0	0	---	0.00	29.999 
19:30	75.1	75.1	76.0	78	67.8	0	0	---	0.00	29.999 
19:35	74.9	74.9	74.9	78	67.6	0	0	---	0.00	29.996 
19:40	74.7	74.7	74.7	79	67.7	0	0	---	0.00	29.996 
19:45	74.6	74.6	74.6	80	68.0	0	0	---	0.00	29.998 
19:50	74.2	74.2	74.2	80	67.6	0	0	---	0.00	30.001 
19:55	74.0	74.0	74.0	81	67.8	0	0	---	0.00	30.003 
20:00	73.7	73.7	73.7	82	67.9	0	0	---	0.00	30.004 
20:05	73.5	73.5	73.5	82	67.7	0	0	---	0.00	29.999 
20:10	73.3	73.3	73.3	83	67.8	0	0	---	0.00	29.999 
20:15	73.2	73.2	73.2	84	68.1	0	0	---	0.00	29.998 
20:20	73.0	73.0	73.0	84	67.9	0	0	---	0.00	30.000 
20:25	72.8	72.8	72.8	84	67.7	0	0	---	0.00	30.000 
20:30	72.7	72.7	72.7	85	67.9	0	0	---	0.00	30.000 
20:35	72.5	72.5	72.5	85	67.7	0	0	---	0.00	29.999 
20:40	72.3	72.3	72.3	85	67.5	0	0	---	0.00	30.000 
20:45	72.1	72.1	72.1	86	67.7	0	0	---	0.00	30.001 
20:50	72.0	72.0	72.0	87	67.9	0	0	---	0.00	30.002 
20:55	71.8	71.8	71.8	87	67.7	0	0	---	0.00	30.003 
21:00	71.6	71.6	71.6	88	67.8	0	0	---	0.00	30.002 
21:05	71.5	71.5	71.5	88	67.7	0	0	---	0.00	29.997 
21:10	71.5	71.5	71.5	88	67.7	0	0	---	0.00	29.998 
21:15	71.3	71.3	71.3	89	67.9	0	0	---	0.00	29.999 
21:20	71.1	71.1	71.1	89	67.7	0	0	---	0.00	30.000 
21:25	70.9	70.9	70.9	90	67.8	0	0	---	0.00	30.000 
21:30	70.9	70.9	70.9	90	67.8	0	0	---	0.00	30.000 
21:35	70.8	70.8	70.8	90	67.7	0	0	---	0.00	30.001 
21:40	70.6	70.6	70.6	90	67.5	0	0	---	0.00	30.004 
21:45	70.6	70.6	70.6	90	67.5	0	0	---	0.00	30.004 
21:50	70.4	70.4	70.4	91	67.6	0	0	---	0.00	30.004 
21:55	70.3	70.3	70.3	91	67.5	0	0	---	0.00	30.001 
22:00	70.3	70.3	70.3	91	67.5	0	0	---	0.00	30.001 
22:05	70.1	70.1	70.1	91	67.3	0	0	---	0.00	30.000 
22:10	70.1	70.1	70.1	91	67.3	0	0	---	0.00	30.001 
22:15	70.1	70.1	70.1	92	67.7	0	0	---	0.00	30.000 
22:20	69.9	69.9	69.9	92	67.5	0	0	---	0.00	30.000 
22:25	69.9	69.9	69.9	92	67.5	0	0	---	0.00	30.001 
22:30	69.8	69.8	69.8	92	67.4	0	0	---	0.00	30.001 
22:35	69.6	69.6	69.6	92	67.2	0	0	---	0.00	30.003 
22:40	69.6	69.6	69.6	92	67.2	0	0	---	0.00	30.001 
22:45	69.4	69.4	69.4	93	67.3	0	0	---	0.00	30.002 
22:50	69.4	69.4	69.4	93	67.3	0	0	---	0.00	30.003 
22:55	69.3	69.3	69.3	93	67.2	0	0	---	0.00	30.002 
23:00	69.3	69.3	69.3	93	67.2	0	0	---	0.00	30.002 
23:05	69.3	69.3	69.3	93	67.2	0	0	---	0.00	30.003 
23:10	69.1	69.1	69.1	93	67.0	0	0	---	0.00	30.002 
23:15	68.9	68.9	68.9	93	66.8	0	0	---	0.00	30.003 
23:20	68.9	68.9	68.9	93	66.8	0	0	---	0.00	30.004 
23:25	68.9	68.9	68.9	94	67.1	0	0	---	0.00	30.004 
23:30	68.9	68.9	68.9	94	67.1	0	0	---	0.00	30.002 
23:35	68.8	68.8	68.8	94	67.0	0	0	---	0.00	30.003 
23:40	68.8	68.8	68.8	94	67.0	0	0	---	0.00	30.004 
23:45	68.6	68.6	68.6	94	66.8	0	0	---	0.00	30.002 
23:50	68.4	68.4	68.4	94	66.6	0	0	---	0.00	30.001 
23:55	68.4	68.4	68.4	94	66.6	0	0	---	0.00	30.001 

CoCoRaHS
IN-AL-39
A2 Web Hosting
Creative Commons License
GoDaddy
Look for:

loaded 2017-10-19 20:04:10 • last modified 2010-11-18 10:43:29
Privacy PolicyDisclaimer
• wx.awcolley.com is powered by PmWiki v.2002016 •
• all content (unless otherwise noted) © 2017 A W Colley